sensor_id;sensor_type;location;lat;lon;timestamp;pressure;altitude;pressure_sealevel;temperature;humidity
19624;BME280;9959;49.798;9.928;2022-08-01T00:01:56;99422.50;;;22.09;100.00
19624;BME280;9959;49.798;9.928;2022-08-01T00:04:24;99418.53;;;22.07;100.00
19624;BME280;9959;49.798;9.928;2022-08-01T00:06:52;99420.81;;;22.13;88.51
19624;BME280;9959;49.798;9.928;2022-08-01T00:09:20;99420.19;;;22.16;84.15
19624;BME280;9959;49.798;9.928;2022-08-01T00:11:50;99423.97;;;22.15;100.00
19624;BME280;9959;49.798;9.928;2022-08-01T00:14:27;99425.88;;;22.15;84.14
19624;BME280;9959;49.798;9.928;2022-08-01T00:16:58;99426.97;;;22.14;84.14
19624;BME280;9959;49.798;9.928;2022-08-01T00:19:32;99427.56;;;22.11;82.72
19624;BME280;9959;49.798;9.928;2022-08-01T00:22:00;99423.59;;;22.08;100.00
19624;BME280;9959;49.798;9.928;2022-08-01T00:24:28;99420.25;;;22.03;nan
19624;BME280;9959;49.798;9.928;2022-08-01T00:26:56;99425.03;;;22.06;100.00
19624;BME280;9959;49.798;9.928;2022-08-01T00:29:24;99419.66;;;22.06;88.49
19624;BME280;9959;49.798;9.928;2022-08-01T00:32:13;99428.19;;;21.94;94.29
19624;BME280;9959;49.798;9.928;2022-08-01T00:34:41;99422.75;;;21.85;100.00
19624;BME280;9959;49.798;9.928;2022-08-01T00:37:09;99419.50;;;21.88;94.29
19624;BME280;9959;49.798;9.928;2022-08-01T00:39:41;99428.13;;;21.85;100.00
19624;BME280;9959;49.798;9.928;2022-08-01T00:42:10;99416.91;;;21.83;100.00
19624;BME280;9959;49.798;9.928;2022-08-01T00:44:39;99423.06;;;21.83;94.28
19624;BME280;9959;49.798;9.928;2022-08-01T00:47:07;99429.03;;;21.80;100.00
19624;BME280;9959;49.798;9.928;2022-08-01T00:49:37;99432.50;;;21.81;100.00
19624;BME280;9959;49.798;9.928;2022-08-01T00:52:05;99431.00;;;21.75;nan
19624;BME280;9959;49.798;9.928;2022-08-01T00:54:33;99429.63;;;21.63;100.00
19624;BME280;9959;49.798;9.928;2022-08-01T00:57:02;99429.91;;;21.62;100.00
19624;BME280;9959;49.798;9.928;2022-08-01T00:59:36;99435.75;;;21.50;nan
19624;BME280;9959;49.798;9.928;2022-08-01T01:02:05;99434.47;;;21.47;100.00
19624;BME280;9959;49.798;9.928;2022-08-01T01:04:42;99432.78;;;21.38;88.42
19624;BME280;9959;49.798;9.928;2022-08-01T01:07:17;99435.25;;;21.34;nan
19624;BME280;9959;49.798;9.928;2022-08-01T01:09:51;99433.25;;;21.26;100.00
19624;BME280;9959;49.798;9.928;2022-08-01T01:12:25;99436.63;;;21.18;100.00
19624;BME280;9959;49.798;9.928;2022-08-01T01:15:07;99428.38;;;21.14;82.68
19624;BME280;9959;49.798;9.928;2022-08-01T01:17:39;99429.47;;;21.13;100.00
19624;BME280;9959;49.798;9.928;2022-08-01T01:20:21;99432.63;;;21.01;100.00
19624;BME280;9959;49.798;9.928;2022-08-01T01:23:00;99431.78;;;20.87;nan
19624;BME280;9959;49.798;9.928;2022-08-01T01:25:45;99437.25;;;20.82;82.57
19624;BME280;9959;49.798;9.928;2022-08-01T01:28:21;99432.16;;;20.80;nan
19624;BME280;9959;49.798;9.928;2022-08-01T01:30:55;99435.72;;;20.75;82.65
19624;BME280;9959;49.798;9.928;2022-08-01T01:33:26;99429.66;;;20.70;nan
19624;BME280;9959;49.798;9.928;2022-08-01T01:36:00;99437.22;;;20.62;82.90
19624;BME280;9959;49.798;9.928;2022-08-01T01:38:40;99445.50;;;20.66;nan
19624;BME280;9959;49.798;9.928;2022-08-01T01:41:11;99441.56;;;20.58;83.99
19624;BME280;9959;49.798;9.928;2022-08-01T01:43:39;99443.56;;;20.53;nan
19624;BME280;9959;49.798;9.928;2022-08-01T01:46:10;99444.41;;;20.48;82.62
19624;BME280;9959;49.798;9.928;2022-08-01T01:48:40;99450.66;;;20.43;82.88
19624;BME280;9959;49.798;9.928;2022-08-01T01:51:12;99445.81;;;20.45;nan
19624;BME280;9959;49.798;9.928;2022-08-01T01:53:41;99453.59;;;20.42;83.97
19624;BME280;9959;49.798;9.928;2022-08-01T01:56:10;99453.97;;;20.35;82.60
19624;BME280;9959;49.798;9.928;2022-08-01T01:58:39;99446.81;;;20.31;94.09
19624;BME280;9959;49.798;9.928;2022-08-01T02:01:10;99450.13;;;20.22;nan
19624;BME280;9959;49.798;9.928;2022-08-01T02:03:41;99446.06;;;20.25;nan
19624;BME280;9959;49.798;9.928;2022-08-01T02:06:12;99449.03;;;20.23;82.55
19624;BME280;9959;49.798;9.928;2022-08-01T02:08:42;99455.84;;;20.16;82.50
19624;BME280;9959;49.798;9.928;2022-08-01T02:11:10;99456.78;;;20.06;83.21
19624;BME280;9959;49.798;9.928;2022-08-01T02:13:53;99455.19;;;20.05;82.84
19624;BME280;9959;49.798;9.928;2022-08-01T02:16:26;99458.97;;;20.04;82.57
19624;BME280;9959;49.798;9.928;2022-08-01T02:18:55;99470.72;;;20.03;82.66
19624;BME280;9959;49.798;9.928;2022-08-01T02:21:26;99460.66;;;19.95;85.37
19624;BME280;9959;49.798;9.928;2022-08-01T02:24:00;99468.56;;;20.05;82.57
19624;BME280;9959;49.798;9.928;2022-08-01T02:26:32;99473.22;;;20.18;82.59
19624;BME280;9959;49.798;9.928;2022-08-01T02:29:06;99466.84;;;20.14;82.58
19624;BME280;9959;49.798;9.928;2022-08-01T02:31:41;99465.19;;;20.18;83.95
19624;BME280;9959;49.798;9.928;2022-08-01T02:34:17;99464.94;;;19.96;82.57
19624;BME280;9959;49.798;9.928;2022-08-01T02:36:46;99462.53;;;19.94;83.20
19624;BME280;9959;49.798;9.928;2022-08-01T02:39:17;99469.09;;;19.83;82.65
19624;BME280;9959;49.798;9.928;2022-08-01T02:41:48;99467.00;;;19.74;82.54
19624;BME280;9959;49.798;9.928;2022-08-01T02:44:23;99463.38;;;19.65;83.89
19624;BME280;9959;49.798;9.928;2022-08-01T02:46:56;99458.66;;;19.57;nan
19624;BME280;9959;49.798;9.928;2022-08-01T02:49:31;99466.22;;;19.50;82.61
19624;BME280;9959;49.798;9.928;2022-08-01T02:52:03;99458.97;;;19.50;nan
19624;BME280;9959;49.798;9.928;2022-08-01T02:54:33;99463.81;;;19.48;82.79
19624;BME280;9959;49.798;9.928;2022-08-01T02:57:02;99477.47;;;19.47;82.47
19624;BME280;9959;49.798;9.928;2022-08-01T02:59:33;99473.50;;;19.44;88.21
19624;BME280;9959;49.798;9.928;2022-08-01T03:02:10;99482.75;;;19.52;82.61
19624;BME280;9959;49.798;9.928;2022-08-01T03:04:39;99480.72;;;19.44;82.79
19624;BME280;9959;49.798;9.928;2022-08-01T03:07:09;99488.22;;;19.41;82.51
19624;BME280;9959;49.798;9.928;2022-08-01T03:09:39;99483.69;;;19.42;82.47
19624;BME280;9959;49.798;9.928;2022-08-01T03:12:10;99484.47;;;19.42;nan
19624;BME280;9959;49.798;9.928;2022-08-01T03:14:40;99491.69;;;19.42;82.44
19624;BME280;9959;49.798;9.928;2022-08-01T03:17:11;99486.56;;;19.46;82.45
19624;BME280;9959;49.798;9.928;2022-08-01T03:19:40;99485.78;;;19.45;83.88
19624;BME280;9959;49.798;9.928;2022-08-01T03:22:11;99485.50;;;19.47;82.52
19624;BME280;9959;49.798;9.928;2022-08-01T03:24:41;99489.25;;;19.46;82.45
19624;BME280;9959;49.798;9.928;2022-08-01T03:27:11;99490.09;;;19.41;82.78
19624;BME280;9959;49.798;9.928;2022-08-01T03:29:41;99487.53;;;19.31;83.86
19624;BME280;9959;49.798;9.928;2022-08-01T03:32:11;99490.25;;;19.26;82.45
19624;BME280;9959;49.798;9.928;2022-08-01T03:34:40;99496.13;;;19.28;88.19
19624;BME280;9959;49.798;9.928;2022-08-01T03:37:12;99498.06;;;19.17;82.58
19624;BME280;9959;49.798;9.928;2022-08-01T03:39:46;99496.94;;;19.23;82.42
19624;BME280;9959;49.798;9.928;2022-08-01T03:42:17;99502.81;;;19.25;nan
19624;BME280;9959;49.798;9.928;2022-08-01T03:44:52;99511.97;;;19.19;nan
19624;BME280;9959;49.798;9.928;2022-08-01T03:47:26;99502.63;;;19.16;82.76
19624;BME280;9959;49.798;9.928;2022-08-01T03:49:58;99507.13;;;19.21;82.77
19624;BME280;9959;49.798;9.928;2022-08-01T03:52:28;99511.16;;;19.18;nan
19624;BME280;9959;49.798;9.928;2022-08-01T03:55:00;99499.66;;;19.18;82.45
19624;BME280;9959;49.798;9.928;2022-08-01T03:57:29;99508.75;;;19.17;82.44
19624;BME280;9959;49.798;9.928;2022-08-01T04:00:04;99498.78;;;19.28;88.19
19624;BME280;9959;49.798;9.928;2022-08-01T04:02:37;99490.69;;;19.33;82.78
19624;BME280;9959;49.798;9.928;2022-08-01T04:05:07;99500.13;;;19.25;82.42
19624;BME280;9959;49.798;9.928;2022-08-01T04:07:35;99502.84;;;19.20;83.85
19624;BME280;9959;49.798;9.928;2022-08-01T04:10:04;99498.53;;;19.24;82.49
19624;BME280;9959;49.798;9.928;2022-08-01T04:12:33;99503.88;;;19.24;nan
19624;BME280;9959;49.798;9.928;2022-08-01T04:15:01;99501.22;;;19.24;82.44
19624;BME280;9959;49.798;9.928;2022-08-01T04:17:29;99516.50;;;19.18;83.85
19624;BME280;9959;49.798;9.928;2022-08-01T04:19:58;99518.75;;;19.35;88.20
19624;BME280;9959;49.798;9.928;2022-08-01T04:22:26;99516.88;;;19.36;83.86
19624;BME280;9959;49.798;9.928;2022-08-01T04:24:56;99502.91;;;19.44;83.87
19624;BME280;9959;49.798;9.928;2022-08-01T04:27:29;99512.00;;;19.43;83.87
19624;BME280;9959;49.798;9.928;2022-08-01T04:30:19;99525.31;;;19.48;83.15
19624;BME280;9959;49.798;9.928;2022-08-01T04:32:51;99520.19;;;19.52;82.61
19624;BME280;9959;49.798;9.928;2022-08-01T04:35:24;99519.66;;;19.55;nan
19624;BME280;9959;49.798;9.928;2022-08-01T04:38:15;99513.28;;;19.51;nan
19624;BME280;9959;49.798;9.928;2022-08-01T04:40:45;99519.88;;;19.58;nan
19624;BME280;9959;49.798;9.928;2022-08-01T04:43:14;99512.75;;;19.49;82.43
19624;BME280;9959;49.798;9.928;2022-08-01T04:45:43;99516.22;;;19.49;nan
19624;BME280;9959;49.798;9.928;2022-08-01T04:48:12;99517.72;;;19.61;88.23
19624;BME280;9959;49.798;9.928;2022-08-01T04:50:42;99516.06;;;19.65;88.23
19624;BME280;9959;49.798;9.928;2022-08-01T04:53:13;99516.69;;;19.56;82.46
19624;BME280;9959;49.798;9.928;2022-08-01T04:55:44;99518.72;;;19.65;88.23
19624;BME280;9959;49.798;9.928;2022-08-01T04:58:13;99524.19;;;19.84;nan
19624;BME280;9959;49.798;9.928;2022-08-01T05:00:43;99532.44;;;19.87;nan
19624;BME280;9959;49.798;9.928;2022-08-01T05:03:12;99525.28;;;20.07;83.93
19624;BME280;9959;49.798;9.928;2022-08-01T05:05:39;99529.75;;;20.12;83.94
19624;BME280;9959;49.798;9.928;2022-08-01T05:08:09;99528.63;;;20.37;83.97
19624;BME280;9959;49.798;9.928;2022-08-01T05:10:37;99526.13;;;20.45;82.70
19624;BME280;9959;49.798;9.928;2022-08-01T05:13:05;99527.66;;;20.52;82.70
19624;BME280;9959;49.798;9.928;2022-08-01T05:15:34;99528.38;;;20.57;nan
19624;BME280;9959;49.798;9.928;2022-08-01T05:18:02;99524.97;;;20.52;82.53
19624;BME280;9959;49.798;9.928;2022-08-01T05:20:33;99535.22;;;20.69;82.59
19624;BME280;9959;49.798;9.928;2022-08-01T05:23:01;99538.97;;;20.87;nan
19624;BME280;9959;49.798;9.928;2022-08-01T05:25:30;99540.56;;;20.88;nan
19624;BME280;9959;49.798;9.928;2022-08-01T05:28:18;99544.09;;;21.02;100.00
19624;BME280;9959;49.798;9.928;2022-08-01T05:30:46;99542.13;;;21.08;100.00
19624;BME280;9959;49.798;9.928;2022-08-01T05:33:14;99544.00;;;21.07;100.00
19624;BME280;9959;49.798;9.928;2022-08-01T05:35:42;99544.69;;;20.99;100.00
19624;BME280;9959;49.798;9.928;2022-08-01T05:38:14;99544.47;;;20.95;100.00
19624;BME280;9959;49.798;9.928;2022-08-01T05:40:43;99545.91;;;21.07;100.00
19624;BME280;9959;49.798;9.928;2022-08-01T05:43:11;99535.91;;;21.12;100.00
19624;BME280;9959;49.798;9.928;2022-08-01T05:45:39;99540.53;;;21.07;100.00
19624;BME280;9959;49.798;9.928;2022-08-01T05:48:08;99540.13;;;21.00;100.00
19624;BME280;9959;49.798;9.928;2022-08-01T05:50:36;99538.50;;;21.18;100.00
19624;BME280;9959;49.798;9.928;2022-08-01T05:53:04;99536.38;;;21.14;100.00
19624;BME280;9959;49.798;9.928;2022-08-01T05:55:31;99539.00;;;21.20;100.00
19624;BME280;9959;49.798;9.928;2022-08-01T05:58:01;99538.94;;;21.06;100.00
19624;BME280;9959;49.798;9.928;2022-08-01T06:00:29;99541.47;;;21.16;100.00
19624;BME280;9959;49.798;9.928;2022-08-01T06:02:57;99541.13;;;21.04;100.00
19624;BME280;9959;49.798;9.928;2022-08-01T06:05:25;99546.56;;;21.18;100.00
19624;BME280;9959;49.798;9.928;2022-08-01T06:07:53;99542.09;;;21.27;100.00
19624;BME280;9959;49.798;9.928;2022-08-01T06:10:21;99542.09;;;21.27;100.00
19624;BME280;9959;49.798;9.928;2022-08-01T06:12:49;99546.56;;;21.31;100.00
19624;BME280;9959;49.798;9.928;2022-08-01T06:15:18;99554.75;;;21.40;100.00
19624;BME280;9959;49.798;9.928;2022-08-01T06:17:46;99547.34;;;21.51;nan
19624;BME280;9959;49.798;9.928;2022-08-01T06:20:14;99551.47;;;21.43;100.00
19624;BME280;9959;49.798;9.928;2022-08-01T06:22:42;99549.16;;;21.56;100.00
19624;BME280;9959;49.798;9.928;2022-08-01T06:25:18;99548.41;;;21.50;100.00
19624;BME280;9959;49.798;9.928;2022-08-01T06:27:47;99552.25;;;21.63;100.00
19624;BME280;9959;49.798;9.928;2022-08-01T06:30:15;99552.41;;;21.53;100.00
19624;BME280;9959;49.798;9.928;2022-08-01T06:32:44;99551.75;;;21.61;100.00
19624;BME280;9959;49.798;9.928;2022-08-01T06:35:12;99558.41;;;21.77;100.00
19624;BME280;9959;49.798;9.928;2022-08-01T06:37:39;99556.53;;;21.92;100.00
19624;BME280;9959;49.798;9.928;2022-08-01T06:40:10;99558.03;;;21.84;100.00
19624;BME280;9959;49.798;9.928;2022-08-01T06:42:43;99558.84;;;21.98;100.00
19624;BME280;9959;49.798;9.928;2022-08-01T06:45:13;99548.81;;;22.04;100.00
19624;BME280;9959;49.798;9.928;2022-08-01T06:47:44;99552.06;;;22.01;100.00
19624;BME280;9959;49.798;9.928;2022-08-01T06:50:16;99555.34;;;22.26;100.00
19624;BME280;9959;49.798;9.928;2022-08-01T06:52:44;99567.97;;;22.25;100.00
19624;BME280;9959;49.798;9.928;2022-08-01T06:55:12;99565.28;;;22.25;100.00
19624;BME280;9959;49.798;9.928;2022-08-01T06:57:47;99558.94;;;22.35;100.00
19624;BME280;9959;49.798;9.928;2022-08-01T07:00:17;99564.22;;;22.40;100.00
19624;BME280;9959;49.798;9.928;2022-08-01T07:02:50;99553.63;;;22.30;100.00
19624;BME280;9959;49.798;9.928;2022-08-01T07:05:18;99570.16;;;22.37;100.00
19624;BME280;9959;49.798;9.928;2022-08-01T07:07:46;99573.81;;;22.69;100.00
19624;BME280;9959;49.798;9.928;2022-08-01T07:10:14;99574.91;;;22.68;100.00
19624;BME280;9959;49.798;9.928;2022-08-01T07:12:42;99571.06;;;22.60;100.00
19624;BME280;9959;49.798;9.928;2022-08-01T07:15:11;99566.22;;;22.71;100.00
19624;BME280;9959;49.798;9.928;2022-08-01T07:17:41;99568.91;;;22.71;84.19
19624;BME280;9959;49.798;9.928;2022-08-01T07:20:12;99571.81;;;23.11;100.00
19624;BME280;9959;49.798;9.928;2022-08-01T07:22:42;99570.97;;;23.56;100.00
19624;BME280;9959;49.798;9.928;2022-08-01T07:25:14;99571.63;;;23.62;nan
19624;BME280;9959;49.798;9.928;2022-08-01T07:27:42;99564.97;;;23.59;100.00
19624;BME280;9959;49.798;9.928;2022-08-01T07:30:10;99566.91;;;23.36;88.63
19624;BME280;9959;49.798;9.928;2022-08-01T07:32:38;99566.00;;;23.18;100.00
19624;BME280;9959;49.798;9.928;2022-08-01T07:35:06;99571.91;;;23.29;100.00
19624;BME280;9959;49.798;9.928;2022-08-01T07:37:36;99574.81;;;23.64;100.00
19624;BME280;9959;49.798;9.928;2022-08-01T07:40:14;99574.66;;;23.92;100.00
19624;BME280;9959;49.798;9.928;2022-08-01T07:42:42;99577.47;;;24.27;nan
19624;BME280;9959;49.798;9.928;2022-08-01T07:45:12;99572.44;;;24.51;84.37
19624;BME280;9959;49.798;9.928;2022-08-01T07:47:40;99570.28;;;24.80;nan
19624;BME280;9959;49.798;9.928;2022-08-01T07:50:08;99564.66;;;25.93;84.51
19624;BME280;9959;49.798;9.928;2022-08-01T07:52:38;99570.69;;;26.29;100.00
19624;BME280;9959;49.798;9.928;2022-08-01T07:55:07;99570.31;;;25.71;nan
19624;BME280;9959;49.798;9.928;2022-08-01T07:57:35;99563.66;;;25.68;nan
19624;BME280;9959;49.798;9.928;2022-08-01T08:00:04;99568.34;;;25.89;100.00
19624;BME280;9959;49.798;9.928;2022-08-01T08:02:33;99570.78;;;25.73;84.49
19624;BME280;9959;49.798;9.928;2022-08-01T08:05:01;99569.47;;;25.32;94.70
19624;BME280;9959;49.798;9.928;2022-08-01T08:07:31;99569.78;;;25.13;100.00
19624;BME280;9959;49.798;9.928;2022-08-01T08:10:00;99567.41;;;25.11;85.90
19624;BME280;9959;49.798;9.928;2022-08-01T08:12:28;99565.31;;;25.90;100.00
19624;BME280;9959;49.798;9.928;2022-08-01T08:14:56;99571.84;;;25.89;100.00
19624;BME280;9959;49.798;9.928;2022-08-01T08:17:25;99562.31;;;25.44;100.00
19624;BME280;9959;49.798;9.928;2022-08-01T08:19:53;99573.91;;;25.19;nan
19624;BME280;9959;49.798;9.928;2022-08-01T08:22:21;99566.09;;;24.47;88.76
19624;BME280;9959;49.798;9.928;2022-08-01T08:24:49;99561.50;;;24.48;100.00
19624;BME280;9959;49.798;9.928;2022-08-01T08:27:18;99563.44;;;25.00;100.00
19624;BME280;9959;49.798;9.928;2022-08-01T08:29:46;99559.25;;;26.02;100.00
19624;BME280;9959;49.798;9.928;2022-08-01T08:32:14;99560.91;;;26.66;nan
19624;BME280;9959;49.798;9.928;2022-08-01T08:34:42;99559.16;;;26.71;100.00
19624;BME280;9959;49.798;9.928;2022-08-01T08:37:10;99560.66;;;26.80;86.06
19624;BME280;9959;49.798;9.928;2022-08-01T08:39:39;99547.47;;;26.79;100.00
19624;BME280;9959;49.798;9.928;2022-08-01T08:42:08;99559.84;;;25.69;85.95
19624;BME280;9959;49.798;9.928;2022-08-01T08:44:40;99559.97;;;24.73;100.00
19624;BME280;9959;49.798;9.928;2022-08-01T08:47:11;99562.97;;;24.71;100.00
19624;BME280;9959;49.798;9.928;2022-08-01T08:49:45;99549.19;;;24.73;100.00
19624;BME280;9959;49.798;9.928;2022-08-01T08:52:15;99561.50;;;24.39;100.00
19624;BME280;9959;49.798;9.928;2022-08-01T08:54:44;99560.41;;;25.27;100.00
19624;BME280;9959;49.798;9.928;2022-08-01T08:57:14;99552.28;;;25.92;84.50
19624;BME280;9959;49.798;9.928;2022-08-01T08:59:44;99550.72;;;26.21;100.00
19624;BME280;9959;49.798;9.928;2022-08-01T09:02:12;99558.09;;;27.51;100.00
19624;BME280;9959;49.798;9.928;2022-08-01T09:04:40;99551.09;;;26.83;84.59
19624;BME280;9959;49.798;9.928;2022-08-01T09:07:08;99567.88;;;26.25;100.00
19624;BME280;9959;49.798;9.928;2022-08-01T09:09:38;99566.66;;;25.67;83.38
19624;BME280;9959;49.798;9.928;2022-08-01T09:12:07;99562.72;;;25.55;100.00
19624;BME280;9959;49.798;9.928;2022-08-01T09:14:45;99567.47;;;25.67;84.48
19624;BME280;9959;49.798;9.928;2022-08-01T09:17:13;99577.09;;;25.77;84.49
19624;BME280;9959;49.798;9.928;2022-08-01T09:19:44;99575.22;;;25.77;100.00
19624;BME280;9959;49.798;9.928;2022-08-01T09:22:16;99579.47;;;25.78;84.49
19624;BME280;9959;49.798;9.928;2022-08-01T09:24:58;99583.97;;;26.13;83.43
19624;BME280;9959;49.798;9.928;2022-08-01T09:27:26;99569.56;;;26.00;100.00
19624;BME280;9959;49.798;9.928;2022-08-01T09:30:07;99569.19;;;25.72;84.49
19624;BME280;9959;49.798;9.928;2022-08-01T09:35:25;99569.34;;;26.14;nan
19624;BME280;9959;49.798;9.928;2022-08-01T09:38:11;99574.97;;;26.00;84.52
19624;BME280;9959;49.798;9.928;2022-08-01T09:40:44;99571.28;;;26.35;100.00
19624;BME280;9959;49.798;9.928;2022-08-01T09:43:14;99573.72;;;27.33;94.94
19624;BME280;9959;49.798;9.928;2022-08-01T09:45:44;99566.81;;;26.90;100.00
19624;BME280;9959;49.798;9.928;2022-08-01T09:48:16;99575.09;;;27.06;89.03
19624;BME280;9959;49.798;9.928;2022-08-01T09:50:45;99573.91;;;27.15;100.00
19624;BME280;9959;49.798;9.928;2022-08-01T09:53:14;99580.78;;;26.71;nan
19624;BME280;9959;49.798;9.928;2022-08-01T09:56:08;99580.09;;;26.53;100.00
19624;BME280;9959;49.798;9.928;2022-08-01T09:58:51;99574.97;;;26.60;84.57
19624;BME280;9959;49.798;9.928;2022-08-01T10:01:27;99574.53;;;25.89;nan
19624;BME280;9959;49.798;9.928;2022-08-01T10:04:08;99580.38;;;26.30;nan
19624;BME280;9959;49.798;9.928;2022-08-01T10:06:37;99580.47;;;27.60;nan
19624;BME280;9959;49.798;9.928;2022-08-01T10:09:07;99572.38;;;27.85;83.95
19624;BME280;9959;49.798;9.928;2022-08-01T10:11:36;99581.44;;;28.79;83.33
19624;BME280;9959;49.798;9.928;2022-08-01T10:14:06;99568.81;;;28.99;100.00
19624;BME280;9959;49.798;9.928;2022-08-01T10:16:36;99566.09;;;28.99;100.00
19624;BME280;9959;49.798;9.928;2022-08-01T10:19:06;99571.69;;;27.88;84.70
19624;BME280;9959;49.798;9.928;2022-08-01T10:21:41;99567.81;;;27.52;100.00
19624;BME280;9959;49.798;9.928;2022-08-01T10:24:26;99568.06;;;26.71;100.00
19624;BME280;9959;49.798;9.928;2022-08-01T10:26:59;99568.00;;;26.80;83.21
19624;BME280;9959;49.798;9.928;2022-08-01T10:29:37;99567.09;;;27.43;89.07
19624;BME280;9959;49.798;9.928;2022-08-01T10:32:15;99567.66;;;27.03;100.00
19624;BME280;9959;49.798;9.928;2022-08-01T10:34:44;99565.19;;;26.67;83.47
19624;BME280;9959;49.798;9.928;2022-08-01T10:37:14;99563.03;;;26.61;100.00
19624;BME280;9959;49.798;9.928;2022-08-01T10:39:43;99567.19;;;26.58;94.85
19624;BME280;9959;49.798;9.928;2022-08-01T10:42:12;99562.28;;;25.92;100.00
19624;BME280;9959;49.798;9.928;2022-08-01T10:44:42;99556.16;;;26.42;100.00
19624;BME280;9959;49.798;9.928;2022-08-01T10:47:18;99558.06;;;26.63;94.86
19624;BME280;9959;49.798;9.928;2022-08-01T10:50:13;99557.22;;;26.92;100.00
19624;BME280;9959;49.798;9.928;2022-08-01T10:53:07;99556.44;;;28.20;100.00
19624;BME280;9959;49.798;9.928;2022-08-01T10:55:50;99545.88;;;28.97;95.13
19624;BME280;9959;49.798;9.928;2022-08-01T10:58:25;99539.25;;;30.22;83.45
19624;BME280;9959;49.798;9.928;2022-08-01T11:01:15;99545.47;;;30.38;nan
19624;BME280;9959;49.798;9.928;2022-08-01T11:03:57;99549.56;;;30.13;nan
19624;BME280;9959;49.798;9.928;2022-08-01T11:06:36;99545.47;;;29.71;nan
19624;BME280;9959;49.798;9.928;2022-08-01T11:09:20;99543.41;;;28.63;nan
19624;BME280;9959;49.798;9.928;2022-08-01T11:11:58;99541.09;;;28.78;nan
19624;BME280;9959;49.798;9.928;2022-08-01T11:14:26;99537.63;;;28.65;nan
19624;BME280;9959;49.798;9.928;2022-08-01T11:17:30;99535.84;;;29.13;nan
19624;BME280;9959;49.798;9.928;2022-08-01T11:20:06;99537.69;;;28.40;nan
19624;BME280;9959;49.798;9.928;2022-08-01T11:26:10;99529.31;;;30.46;nan
19624;BME280;9959;49.798;9.928;2022-08-01T11:28:39;99528.09;;;31.02;nan
19624;BME280;9959;49.798;9.928;2022-08-01T11:31:29;99524.72;;;30.89;83.54
19624;BME280;9959;49.798;9.928;2022-08-01T11:34:03;99528.19;;;29.79;nan
19624;BME280;9959;49.798;9.928;2022-08-01T11:36:33;99525.81;;;29.62;83.42
19624;BME280;9959;49.798;9.928;2022-08-01T11:39:21;99532.25;;;29.37;83.37
19624;BME280;9959;49.798;9.928;2022-08-01T11:41:50;99523.38;;;29.24;89.26
19624;BME280;9959;49.798;9.928;2022-08-01T11:44:23;99531.72;;;28.75;83.31
19624;BME280;9959;49.798;9.928;2022-08-01T11:47:01;99527.66;;;28.28;83.63
19624;BME280;9959;49.798;9.928;2022-08-01T11:49:46;99526.88;;;28.15;nan
19624;BME280;9959;49.798;9.928;2022-08-01T11:52:23;99514.22;;;28.60;83.30
19624;BME280;9959;49.798;9.928;2022-08-01T11:54:53;99512.78;;;28.63;83.66
19624;BME280;9959;49.798;9.928;2022-08-01T11:57:23;99527.72;;;29.13;nan
19624;BME280;9959;49.798;9.928;2022-08-01T12:00:00;99524.69;;;29.47;nan
19624;BME280;9959;49.798;9.928;2022-08-01T12:02:31;99515.13;;;30.75;nan
19624;BME280;9959;49.798;9.928;2022-08-01T12:05:02;99520.09;;;32.36;nan
19624;BME280;9959;49.798;9.928;2022-08-01T12:07:35;99509.78;;;32.22;83.64
19624;BME280;9959;49.798;9.928;2022-08-01T12:10:05;99515.28;;;31.98;nan
19624;BME280;9959;49.798;9.928;2022-08-01T12:12:35;99508.34;;;32.99;83.74
19624;BME280;9959;49.798;9.928;2022-08-01T12:15:05;99510.09;;;33.67;nan
19624;BME280;9959;49.798;9.928;2022-08-01T12:17:37;99515.66;;;32.92;nan
19624;BME280;9959;49.798;9.928;2022-08-01T12:20:08;99510.16;;;31.43;nan
19624;BME280;9959;49.798;9.928;2022-08-01T12:22:38;99515.63;;;31.70;nan
19624;BME280;9959;49.798;9.928;2022-08-01T12:25:08;99504.03;;;31.27;nan
19624;BME280;9959;49.798;9.928;2022-08-01T12:27:38;99507.75;;;31.19;nan
19624;BME280;9959;49.798;9.928;2022-08-01T12:30:07;99503.59;;;31.02;nan
19624;BME280;9959;49.798;9.928;2022-08-01T12:32:37;99499.09;;;30.51;nan
19624;BME280;9959;49.798;9.928;2022-08-01T12:35:06;99493.88;;;29.39;83.37
19624;BME280;9959;49.798;9.928;2022-08-01T12:37:35;99497.13;;;29.00;83.69
19624;BME280;9959;49.798;9.928;2022-08-01T12:40:12;99502.00;;;29.55;83.40
19624;BME280;9959;49.798;9.928;2022-08-01T12:42:42;99491.41;;;29.34;84.09
19624;BME280;9959;49.798;9.928;2022-08-01T12:45:12;99504.91;;;29.30;83.40
19624;BME280;9959;49.798;9.928;2022-08-01T12:47:41;99506.94;;;28.77;nan
19624;BME280;9959;49.798;9.928;2022-08-01T12:50:12;99501.69;;;28.96;83.41
19624;BME280;9959;49.798;9.928;2022-08-01T12:52:40;99494.78;;;29.15;nan
19624;BME280;9959;49.798;9.928;2022-08-01T12:55:13;99509.13;;;28.99;84.80
19624;BME280;9959;49.798;9.928;2022-08-01T12:57:43;99502.09;;;29.27;83.53
19624;BME280;9959;49.798;9.928;2022-08-01T13:00:15;99502.75;;;29.07;nan
19624;BME280;9959;49.798;9.928;2022-08-01T13:02:44;99497.19;;;28.60;83.33
19624;BME280;9959;49.798;9.928;2022-08-01T13:05:13;99493.25;;;29.46;nan
19624;BME280;9959;49.798;9.928;2022-08-01T13:07:47;99495.50;;;29.12;83.36
19624;BME280;9959;49.798;9.928;2022-08-01T13:10:26;99488.66;;;29.18;nan
19624;BME280;9959;49.798;9.928;2022-08-01T13:12:56;99493.59;;;29.44;100.00
19624;BME280;9959;49.798;9.928;2022-08-01T13:15:27;99489.81;;;28.72;nan
19624;BME280;9959;49.798;9.928;2022-08-01T13:18:00;99493.22;;;28.57;nan
19624;BME280;9959;49.798;9.928;2022-08-01T13:20:31;99493.69;;;28.87;84.79
19624;BME280;9959;49.798;9.928;2022-08-01T13:23:11;99491.94;;;28.26;nan
19624;BME280;9959;49.798;9.928;2022-08-01T13:25:52;99482.81;;;28.59;83.31
19624;BME280;9959;49.798;9.928;2022-08-01T13:28:23;99487.44;;;29.95;nan
19624;BME280;9959;49.798;9.928;2022-08-01T13:30:56;99487.81;;;31.34;nan
19624;BME280;9959;49.798;9.928;2022-08-01T13:40:57;99473.06;;;29.15;nan
19624;BME280;9959;49.798;9.928;2022-08-01T13:43:25;99471.97;;;28.59;nan
19624;BME280;9959;49.798;9.928;2022-08-01T13:45:58;99472.78;;;28.19;nan
19624;BME280;9959;49.798;9.928;2022-08-01T13:48:26;99468.44;;;28.71;83.38
19624;BME280;9959;49.798;9.928;2022-08-01T13:50:55;99475.81;;;28.86;84.79